createdAt,value
2023-02-02T00:01:33.003Z,7.80
2023-02-02T00:04:01.225Z,13.70
2023-02-02T00:06:31.300Z,17.80
2023-02-02T00:09:01.307Z,10.80
2023-02-02T00:11:29.563Z,8.50
2023-02-02T00:13:57.520Z,8.40
2023-02-02T00:16:28.712Z,13.50
2023-02-02T00:18:59.361Z,11.40
2023-02-02T00:21:28.233Z,11.60
2023-02-02T00:23:56.195Z,6.50
2023-02-02T00:26:24.728Z,9.80
2023-02-02T00:28:53.086Z,11.20
2023-02-02T00:31:21.140Z,7.80
2023-02-02T00:33:50.200Z,12.70
2023-02-02T00:36:19.479Z,11.20
2023-02-02T00:38:48.934Z,9.10
2023-02-02T00:41:17.299Z,7.00
2023-02-02T00:43:46.945Z,9.70
2023-02-02T00:46:19.365Z,5.80
2023-02-02T00:48:47.441Z,6.90
2023-02-02T00:51:15.409Z,13.00
2023-02-02T00:53:43.282Z,8.80
2023-02-02T00:56:11.383Z,12.70
2023-02-02T00:58:39.370Z,6.20
2023-02-02T01:01:18.464Z,7.40
2023-02-02T01:03:46.910Z,8.20
2023-02-02T01:06:16.091Z,8.10
2023-02-02T01:08:44.350Z,10.50
2023-02-02T01:11:12.368Z,8.30
2023-02-02T01:13:40.425Z,9.70
2023-02-02T01:16:08.554Z,8.70
2023-02-02T01:18:37.001Z,6.30
2023-02-02T01:21:08.204Z,7.50
2023-02-02T01:23:37.296Z,7.10
2023-02-02T01:26:08.661Z,5.90
2023-02-02T01:28:37.380Z,8.30
2023-02-02T01:31:08.221Z,6.70
2023-02-02T01:33:36.313Z,11.10
2023-02-02T01:36:06.816Z,5.40
2023-02-02T01:38:35.313Z,7.70
2023-02-02T01:41:07.322Z,10.10
2023-02-02T01:43:41.729Z,7.90
2023-02-02T01:46:21.022Z,6.30
2023-02-02T01:49:03.179Z,7.90
2023-02-02T01:51:52.116Z,7.10
2023-02-02T01:54:39.233Z,7.60
2023-02-02T01:57:12.788Z,7.20
2023-02-02T01:59:42.034Z,7.50
2023-02-02T02:02:13.063Z,9.40
2023-02-02T02:04:42.649Z,7.80
2023-02-02T02:07:11.299Z,7.90
2023-02-02T02:09:39.299Z,8.90
2023-02-02T02:12:15.725Z,11.20
2023-02-02T02:15:06.958Z,5.40
2023-02-02T02:17:53.921Z,5.30
2023-02-02T02:21:05.130Z,7.10
2023-02-02T02:24:17.702Z,9.60
2023-02-02T02:26:56.704Z,13.10
2023-02-02T02:29:51.032Z,9.50
2023-02-02T02:32:37.734Z,7.70
2023-02-02T02:35:13.115Z,4.60
2023-02-02T02:37:51.327Z,6.30
2023-02-02T02:40:25.544Z,5.60
2023-02-02T02:42:59.926Z,11.00
2023-02-02T02:45:28.344Z,7.30
2023-02-02T02:47:56.644Z,9.20
2023-02-02T02:50:24.599Z,5.30
2023-02-02T02:53:04.435Z,6.80
2023-02-02T02:55:47.746Z,8.30
2023-02-02T02:58:21.158Z,5.30
2023-02-02T03:01:08.176Z,6.60
2023-02-02T03:03:51.540Z,6.90
2023-02-02T03:06:46.220Z,11.80
2023-02-02T03:09:20.110Z,9.30
2023-02-02T03:11:48.339Z,6.50
2023-02-02T03:14:16.739Z,9.20
2023-02-02T03:16:44.750Z,7.80
2023-02-02T03:19:13.092Z,7.40
2023-02-02T03:21:41.140Z,9.10
2023-02-02T03:24:09.350Z,9.80
2023-02-02T03:26:37.878Z,6.10
2023-02-02T03:29:06.308Z,5.50
2023-02-02T03:31:37.307Z,9.50
2023-02-02T03:34:05.856Z,8.50
2023-02-02T03:36:34.121Z,10.00
2023-02-02T03:39:02.798Z,7.20
2023-02-02T03:41:30.684Z,12.40
2023-02-02T03:43:58.723Z,10.90
2023-02-02T03:46:27.166Z,7.20
2023-02-02T03:48:56.031Z,10.40
2023-02-02T03:51:24.258Z,8.40
2023-02-02T03:53:52.453Z,6.40
2023-02-02T03:56:20.729Z,10.50
2023-02-02T03:58:48.690Z,6.10
2023-02-02T04:01:16.794Z,9.00
2023-02-02T04:03:46.409Z,8.60
2023-02-02T04:06:14.491Z,7.90
2023-02-02T04:08:45.864Z,10.20
2023-02-02T04:11:14.117Z,8.30
2023-02-02T04:13:45.670Z,5.30
2023-02-02T04:16:15.196Z,4.40
2023-02-02T04:18:43.205Z,9.30
2023-02-02T04:21:11.421Z,5.80
2023-02-02T04:23:39.497Z,8.40
2023-02-02T04:26:07.500Z,7.60
2023-02-02T04:28:35.926Z,7.50
2023-02-02T04:31:03.956Z,8.20
2023-02-02T04:33:32.075Z,8.10
2023-02-02T04:36:00.319Z,8.90
2023-02-02T04:38:28.552Z,6.20
2023-02-02T04:40:56.793Z,6.50
2023-02-02T04:43:24.718Z,7.10
2023-02-02T04:45:57.378Z,13.50
2023-02-02T04:48:25.717Z,7.60
2023-02-02T04:51:01.188Z,9.80
2023-02-02T04:53:29.857Z,5.70
2023-02-02T04:55:58.563Z,8.70
2023-02-02T04:58:27.359Z,4.80
2023-02-02T05:00:55.302Z,7.50
2023-02-02T05:03:23.831Z,5.40
2023-02-02T05:05:51.950Z,5.40
2023-02-02T05:08:21.371Z,7.10
2023-02-02T05:10:50.488Z,7.90
2023-02-02T05:13:18.777Z,9.30
2023-02-02T05:15:47.012Z,6.50
2023-02-02T05:18:15.185Z,7.90
2023-02-02T05:20:43.389Z,9.70
2023-02-02T05:23:11.515Z,6.90
2023-02-02T05:25:39.811Z,11.50
2023-02-02T05:28:07.800Z,5.90
2023-02-02T05:30:36.025Z,6.80
2023-02-02T05:33:04.367Z,10.30
2023-02-02T05:35:32.535Z,6.60
2023-02-02T05:38:00.394Z,7.50
2023-02-02T05:40:28.760Z,5.10
2023-02-02T05:42:56.995Z,10.20
2023-02-02T05:45:25.263Z,7.90
2023-02-02T05:47:55.161Z,8.40
2023-02-02T05:50:23.261Z,7.70
2023-02-02T05:52:51.507Z,8.00
2023-02-02T05:55:20.177Z,6.50
2023-02-02T05:57:48.316Z,7.20
2023-02-02T06:00:19.867Z,7.00
2023-02-02T06:02:48.325Z,11.70
2023-02-02T06:05:16.702Z,11.80
2023-02-02T06:07:44.741Z,7.20
2023-02-02T06:10:12.760Z,10.70
2023-02-02T06:12:40.590Z,8.20
2023-02-02T06:15:08.995Z,9.80
2023-02-02T06:17:37.190Z,8.70
2023-02-02T06:20:05.819Z,8.10
2023-02-02T06:22:33.937Z,8.10
2023-02-02T06:25:04.375Z,5.20
2023-02-02T06:27:32.753Z,6.10
2023-02-02T06:30:00.583Z,6.50
2023-02-02T06:32:31.440Z,4.10
2023-02-02T06:34:59.348Z,7.20
2023-02-02T06:37:29.639Z,5.20
2023-02-02T06:39:58.854Z,5.30
2023-02-02T06:42:26.791Z,4.40
2023-02-02T06:44:54.757Z,5.20
2023-02-02T06:47:22.744Z,4.30
2023-02-02T06:49:51.230Z,8.10
2023-02-02T06:52:19.078Z,5.20
2023-02-02T06:54:47.168Z,6.00
2023-02-02T06:57:15.187Z,5.00
2023-02-02T06:59:43.186Z,4.90
2023-02-02T07:02:13.358Z,4.50
2023-02-02T07:04:41.218Z,6.20
2023-02-02T07:07:09.205Z,5.70
2023-02-02T07:09:37.270Z,5.40
2023-02-02T07:12:05.497Z,5.50
2023-02-02T07:14:33.530Z,8.00
2023-02-02T07:17:01.718Z,3.30
2023-02-02T07:19:29.777Z,7.10
2023-02-02T07:21:57.905Z,3.40
2023-02-02T07:24:27.617Z,5.50
2023-02-02T07:26:55.898Z,2.90
2023-02-02T07:29:24.051Z,4.20
2023-02-02T07:31:52.262Z,3.80
2023-02-02T07:34:20.364Z,1.80
2023-02-02T07:36:48.350Z,5.20
2023-02-02T07:39:16.454Z,5.20
2023-02-02T07:41:44.313Z,4.80
2023-02-02T07:44:15.947Z,6.90
2023-02-02T07:46:45.129Z,3.50
2023-02-02T07:49:15.304Z,3.80
2023-02-02T07:51:47.548Z,7.40
2023-02-02T07:54:16.743Z,7.40
2023-02-02T07:56:44.878Z,6.10
2023-02-02T07:59:12.806Z,6.00
2023-02-02T08:01:40.983Z,6.00
2023-02-02T08:04:08.871Z,3.20
2023-02-02T08:06:38.521Z,3.70
2023-02-02T08:09:08.474Z,3.50
2023-02-02T08:11:38.135Z,1.70
2023-02-02T08:14:06.964Z,5.00
2023-02-02T08:16:35.201Z,4.10
2023-02-02T08:19:03.665Z,6.00
2023-02-02T08:21:35.291Z,5.80
2023-02-02T08:24:04.847Z,6.30
2023-02-02T08:26:33.239Z,6.60
2023-02-02T08:29:07.413Z,4.90
2023-02-02T08:31:38.211Z,3.30
2023-02-02T08:34:06.682Z,3.60
2023-02-02T08:36:37.387Z,5.90
2023-02-02T08:39:07.733Z,3.90
2023-02-02T08:41:37.107Z,4.70
2023-02-02T08:44:11.451Z,2.80
2023-02-02T08:46:40.231Z,2.90
2023-02-02T08:49:12.219Z,2.80
2023-02-02T08:51:40.840Z,3.70
2023-02-02T08:54:09.211Z,6.40
2023-02-02T08:56:37.231Z,6.70
2023-02-02T08:59:06.001Z,4.40
2023-02-02T09:01:35.259Z,2.20
2023-02-02T09:04:07.166Z,4.50
2023-02-02T09:06:40.033Z,1.90
2023-02-02T09:09:10.250Z,5.30
2023-02-02T09:11:38.411Z,4.80
2023-02-02T09:14:06.962Z,4.00
2023-02-02T09:16:35.792Z,4.10
2023-02-02T09:19:04.466Z,2.20
2023-02-02T09:21:37.568Z,3.40
2023-02-02T09:24:13.515Z,2.70
2023-02-02T09:26:43.416Z,4.70
2023-02-02T09:29:13.717Z,4.10
2023-02-02T09:31:43.241Z,6.30
2023-02-02T09:34:13.416Z,3.60
2023-02-02T09:36:42.368Z,3.80
2023-02-02T09:39:15.148Z,7.70
2023-02-02T09:42:21.328Z,3.70
2023-02-02T09:44:56.599Z,3.20
2023-02-02T09:47:43.949Z,4.20
2023-02-02T09:50:23.855Z,3.50
2023-02-02T09:52:55.676Z,2.90
2023-02-02T09:55:44.520Z,7.40
2023-02-02T09:58:23.207Z,2.60
2023-02-02T10:01:15.441Z,4.90
2023-02-02T10:04:05.642Z,2.60
2023-02-02T10:06:42.920Z,3.50
2023-02-02T10:09:18.207Z,2.80
2023-02-02T10:11:56.941Z,3.20
2023-02-02T10:14:30.081Z,2.50
2023-02-02T10:17:01.204Z,3.90
2023-02-02T10:19:30.899Z,4.60
2023-02-02T10:22:11.954Z,4.60
2023-02-02T10:24:40.353Z,4.00
2023-02-02T10:27:24.160Z,4.00
2023-02-02T10:30:02.422Z,3.30
2023-02-02T10:32:49.746Z,2.80
2023-02-02T10:35:27.675Z,2.40
2023-02-02T10:38:20.375Z,3.40
2023-02-02T10:41:10.602Z,5.50
2023-02-02T10:44:04.464Z,4.30
2023-02-02T10:46:42.027Z,5.50
2023-02-02T10:49:13.191Z,3.10
2023-02-02T10:51:41.752Z,5.20
2023-02-02T10:54:26.983Z,6.30
2023-02-02T10:56:58.443Z,5.30
2023-02-02T10:59:32.147Z,9.00
2023-02-02T11:02:11.571Z,3.20
2023-02-02T11:05:02.285Z,5.20
2023-02-02T11:07:30.450Z,2.20
2023-02-02T11:09:58.354Z,3.40
2023-02-02T11:12:33.241Z,3.50
2023-02-02T11:15:25.624Z,4.40
2023-02-02T11:17:53.780Z,3.50
2023-02-02T11:20:38.963Z,3.60
2023-02-02T11:23:09.957Z,2.40
2023-02-02T11:25:38.881Z,2.40
2023-02-02T11:28:19.929Z,3.70
2023-02-02T11:30:52.852Z,4.70
2023-02-02T11:33:35.699Z,6.20
2023-02-02T11:36:21.453Z,3.70
2023-02-02T11:38:49.416Z,3.90
2023-02-02T11:41:22.049Z,2.50
2023-02-02T11:43:52.655Z,5.40
2023-02-02T11:46:28.796Z,3.20
2023-02-02T11:49:03.426Z,2.80
2023-02-02T11:51:32.036Z,5.00
2023-02-02T11:54:16.042Z,2.80
2023-02-02T11:56:50.463Z,3.40
2023-02-02T11:59:40.893Z,4.70
2023-02-02T12:02:25.908Z,4.80
2023-02-02T12:04:56.654Z,5.40
2023-02-02T12:07:28.635Z,3.10
2023-02-02T12:10:04.393Z,4.20
2023-02-02T12:12:37.574Z,4.20
2023-02-02T12:18:07.972Z,4.20
2023-02-02T12:20:38.789Z,4.80
2023-02-02T12:23:37.348Z,3.30
2023-02-02T12:26:27.014Z,3.30
2023-02-02T12:29:07.095Z,3.60
2023-02-02T12:31:46.924Z,4.50
2023-02-02T12:34:30.375Z,4.30
2023-02-02T12:37:04.459Z,6.30
2023-02-02T12:39:55.485Z,6.30
2023-02-02T12:42:26.522Z,4.10
2023-02-02T12:45:16.455Z,4.20
2023-02-02T12:47:48.416Z,6.90
2023-02-02T12:50:35.609Z,6.70
2023-02-02T12:53:18.850Z,4.20
2023-02-02T12:56:16.119Z,4.10
2023-02-02T12:59:02.178Z,5.30
2023-02-02T13:01:38.880Z,7.70
2023-02-02T13:04:09.681Z,4.20
2023-02-02T13:06:56.633Z,4.50
2023-02-02T13:09:38.000Z,4.80
2023-02-02T13:12:11.024Z,3.00
2023-02-02T13:17:21.587Z,4.60
2023-02-02T13:19:53.820Z,3.30
2023-02-02T13:22:26.955Z,6.40
2023-02-02T13:25:00.141Z,3.80
2023-02-02T13:27:30.776Z,8.10
2023-02-02T13:30:18.133Z,6.50
2023-02-02T13:32:46.858Z,7.30
2023-02-02T13:35:22.483Z,5.40
2023-02-02T13:37:56.453Z,4.50
2023-02-02T13:40:39.560Z,6.00
2023-02-02T13:43:33.083Z,4.80
2023-02-02T13:46:01.057Z,3.60
2023-02-02T13:48:47.667Z,7.30
2023-02-02T13:51:37.608Z,12.60
2023-02-02T13:54:27.511Z,7.00
2023-02-02T13:57:10.885Z,5.30
2023-02-02T14:00:18.736Z,6.50
2023-02-02T14:02:58.652Z,9.00
2023-02-02T14:05:38.940Z,4.00
2023-02-02T14:08:16.091Z,4.10
2023-02-02T14:10:53.265Z,10.10
2023-02-02T14:13:45.614Z,6.30
2023-02-02T14:16:41.553Z,5.60
2023-02-02T14:19:16.103Z,4.90
2023-02-02T14:21:44.020Z,8.00
2023-02-02T14:24:27.523Z,5.20
2023-02-02T14:27:00.391Z,6.70
2023-02-02T14:29:31.705Z,10.50
2023-02-02T14:32:07.033Z,6.60
2023-02-02T14:34:45.248Z,4.10
2023-02-02T14:37:20.853Z,4.10
2023-02-02T14:40:01.138Z,5.60
2023-02-02T14:42:53.698Z,7.70
2023-02-02T14:45:31.844Z,4.40
2023-02-02T14:48:11.650Z,9.20
2023-02-02T14:50:49.567Z,5.00
2023-02-02T14:53:20.192Z,4.40
2023-02-02T14:56:12.329Z,5.00
2023-02-02T14:58:44.273Z,6.30
2023-02-02T15:01:18.358Z,8.10
2023-02-02T15:04:21.728Z,4.90
2023-02-02T15:06:52.812Z,5.40
2023-02-02T15:09:21.036Z,3.90
2023-02-02T15:12:09.120Z,6.80
2023-02-02T15:14:43.331Z,3.30
2023-02-02T15:17:39.477Z,5.50
2023-02-02T15:20:33.837Z,2.80
2023-02-02T15:23:16.039Z,5.70
2023-02-02T15:26:09.233Z,4.00
2023-02-02T15:28:48.114Z,2.70
2023-02-02T15:31:23.021Z,4.20
2023-02-02T15:33:52.858Z,5.90
2023-02-02T15:36:25.195Z,6.60
2023-02-02T15:38:55.558Z,5.20
2023-02-02T15:41:26.784Z,4.40
2023-02-02T15:43:55.104Z,5.10
2023-02-02T15:46:29.311Z,3.90
2023-02-02T15:49:33.836Z,5.50
2023-02-02T15:52:19.529Z,4.30
2023-02-02T15:54:53.307Z,5.80
2023-02-02T15:57:42.510Z,6.90
2023-02-02T16:00:39.814Z,3.70
2023-02-02T16:03:14.650Z,3.60
2023-02-02T16:05:56.413Z,5.80
2023-02-02T16:08:28.013Z,4.00
2023-02-02T16:11:25.803Z,5.10
2023-02-02T16:14:10.885Z,5.50
2023-02-02T16:16:40.419Z,4.00
2023-02-02T16:19:08.527Z,3.70
2023-02-02T16:21:41.314Z,3.30
2023-02-02T16:24:19.587Z,3.60
2023-02-02T16:26:48.711Z,3.60
2023-02-02T16:29:18.692Z,3.50
2023-02-02T16:31:47.858Z,3.60
2023-02-02T16:34:17.268Z,4.80
2023-02-02T16:37:04.756Z,3.40
2023-02-02T16:39:32.766Z,3.80
2023-02-02T16:42:12.193Z,3.70
2023-02-02T16:44:43.726Z,5.30
2023-02-02T16:47:33.384Z,4.90
2023-02-02T16:50:10.735Z,4.50
2023-02-02T16:52:50.607Z,6.30
2023-02-02T16:55:20.283Z,5.00
2023-02-02T16:57:50.037Z,5.00
2023-02-02T17:00:24.783Z,4.50
2023-02-02T17:03:03.726Z,4.50
2023-02-02T17:05:59.150Z,4.60
2023-02-02T17:08:33.207Z,3.60
2023-02-02T17:11:13.034Z,4.20
2023-02-02T17:13:41.817Z,4.00
2023-02-02T17:16:16.886Z,4.00
2023-02-02T17:18:45.304Z,2.50
2023-02-02T17:21:21.118Z,3.00
2023-02-02T17:23:51.980Z,3.70
2023-02-02T17:26:20.741Z,3.00
2023-02-02T17:28:49.604Z,3.70
2023-02-02T17:31:17.767Z,4.70
2023-02-02T17:33:46.259Z,2.60
2023-02-02T17:36:14.822Z,2.40
2023-02-02T17:38:43.401Z,3.40
2023-02-02T17:41:14.393Z,2.80
2023-02-02T17:43:43.158Z,3.20
2023-02-02T17:46:13.475Z,3.40
2023-02-02T17:48:41.929Z,3.20
2023-02-02T17:51:15.253Z,4.40
2023-02-02T17:53:44.804Z,3.60
2023-02-02T17:56:13.156Z,4.10
2023-02-02T17:58:41.620Z,3.90
2023-02-02T18:01:11.579Z,4.00
2023-02-02T18:03:41.091Z,5.90
2023-02-02T18:06:10.991Z,3.30
2023-02-02T18:08:39.051Z,3.70
2023-02-02T18:11:07.164Z,4.60
2023-02-02T18:13:35.564Z,6.10
2023-02-02T18:16:07.023Z,5.50
2023-02-02T18:18:35.668Z,5.70
2023-02-02T18:21:08.389Z,3.00
2023-02-02T18:23:37.948Z,5.20
2023-02-02T18:26:12.714Z,4.80
2023-02-02T18:28:41.444Z,4.80
2023-02-02T18:31:12.443Z,4.80
2023-02-02T18:33:41.748Z,4.90
2023-02-02T18:36:15.455Z,4.90
2023-02-02T18:38:47.007Z,5.20
2023-02-02T18:41:16.891Z,4.90
2023-02-02T18:43:48.468Z,2.90
2023-02-02T18:46:17.725Z,2.80
2023-02-02T18:48:46.355Z,2.90
2023-02-02T18:51:16.794Z,3.00
2023-02-02T18:53:46.938Z,2.90
2023-02-02T18:56:15.626Z,1.90
2023-02-02T18:58:43.970Z,3.20
2023-02-02T19:01:17.623Z,2.40
2023-02-02T19:03:51.370Z,4.60
2023-02-02T19:06:39.116Z,2.90
2023-02-02T19:09:14.202Z,2.80
2023-02-02T19:11:45.342Z,4.10
2023-02-02T19:14:25.562Z,4.10
2023-02-02T19:16:57.020Z,3.70
2023-02-02T19:19:34.814Z,2.40
2023-02-02T19:22:23.584Z,1.90
2023-02-02T19:24:51.687Z,3.60
2023-02-02T19:27:22.323Z,2.60
2023-02-02T19:29:56.577Z,3.40
2023-02-02T19:32:27.111Z,2.70
2023-02-02T19:35:02.184Z,3.30
2023-02-02T19:37:32.928Z,6.80
2023-02-02T19:40:07.463Z,4.60
2023-02-02T19:42:36.608Z,6.90
2023-02-02T19:45:22.090Z,6.40
2023-02-02T19:47:52.537Z,4.60
2023-02-02T19:50:22.765Z,6.50
2023-02-02T19:52:51.461Z,7.70
2023-02-02T19:55:25.798Z,6.60
2023-02-02T19:57:58.670Z,5.80
2023-02-02T20:00:29.741Z,6.80
2023-02-02T20:03:02.944Z,5.60
2023-02-02T20:05:47.284Z,6.60
2023-02-02T20:08:42.847Z,5.70
2023-02-02T20:11:38.725Z,7.30
2023-02-02T20:14:30.572Z,7.80
2023-02-02T20:17:29.079Z,5.60
2023-02-02T20:19:57.293Z,6.10
2023-02-02T20:22:32.794Z,6.60
2023-02-02T20:25:08.238Z,5.80
2023-02-02T20:27:38.134Z,4.50
2023-02-02T20:30:39.047Z,7.60
2023-02-02T20:33:20.891Z,8.50
2023-02-02T20:35:49.619Z,6.80
2023-02-02T20:38:29.380Z,6.00
2023-02-02T20:40:58.125Z,6.50
2023-02-02T20:43:26.937Z,6.50
2023-02-02T20:45:58.355Z,7.40
2023-02-02T20:48:27.955Z,8.00
2023-02-02T20:50:56.133Z,7.00
2023-02-02T20:53:24.371Z,6.30
2023-02-02T20:55:57.527Z,6.20
2023-02-02T20:58:25.943Z,6.40
2023-02-02T21:00:55.183Z,7.20
2023-02-02T21:03:23.526Z,6.80
2023-02-02T21:05:51.665Z,6.40
2023-02-02T21:08:19.734Z,6.60
2023-02-02T21:10:47.887Z,7.30
2023-02-02T21:13:15.945Z,8.20
2023-02-02T21:15:44.313Z,5.20
2023-02-02T21:18:12.673Z,6.80
2023-02-02T21:20:40.950Z,8.60
2023-02-02T21:23:10.311Z,6.30
2023-02-02T21:25:38.401Z,6.80
2023-02-02T21:28:06.591Z,5.60
2023-02-02T21:30:35.613Z,8.30
2023-02-02T21:33:05.743Z,9.10
2023-02-02T21:35:34.664Z,8.10
2023-02-02T21:38:11.024Z,7.20
2023-02-02T21:40:40.274Z,11.30
2023-02-02T21:43:15.601Z,9.40
2023-02-02T21:45:45.491Z,8.40
2023-02-02T21:48:19.462Z,8.50
2023-02-02T21:50:48.049Z,9.50
2023-02-02T21:53:24.597Z,11.70
2023-02-02T21:55:58.592Z,6.70
2023-02-02T21:58:33.375Z,7.50
2023-02-02T22:01:16.946Z,8.80
2023-02-02T22:03:47.117Z,9.40
2023-02-02T22:06:21.313Z,9.40
2023-02-02T22:08:50.253Z,11.00
2023-02-02T22:11:18.596Z,6.80
2023-02-02T22:13:46.601Z,12.90
2023-02-02T22:16:18.415Z,8.80
2023-02-02T22:18:47.381Z,6.60
2023-02-02T22:21:19.925Z,8.70
2023-02-02T22:23:48.966Z,9.10
2023-02-02T22:26:29.559Z,12.30
2023-02-02T22:28:57.932Z,11.30
2023-02-02T22:31:25.991Z,13.40
2023-02-02T22:33:54.482Z,8.30
2023-02-02T22:36:23.067Z,8.50
2023-02-02T22:38:51.143Z,10.70
2023-02-02T22:41:19.370Z,11.30
2023-02-02T22:43:47.418Z,11.00
2023-02-02T22:46:15.644Z,10.70
2023-02-02T22:48:43.780Z,11.50
2023-02-02T22:51:11.870Z,9.80
2023-02-02T22:53:40.001Z,9.50
2023-02-02T22:56:07.943Z,8.70
2023-02-02T22:58:36.134Z,9.80
2023-02-02T23:01:05.067Z,9.30
2023-02-02T23:03:33.085Z,9.80
2023-02-02T23:06:01.499Z,9.90
2023-02-02T23:08:29.574Z,14.20
2023-02-02T23:10:57.532Z,12.10
2023-02-02T23:13:25.584Z,14.00
2023-02-02T23:15:53.545Z,12.60
2023-02-02T23:18:22.330Z,18.50
2023-02-02T23:20:50.612Z,14.10
2023-02-02T23:23:18.700Z,11.20
2023-02-02T23:25:46.697Z,11.50
2023-02-02T23:28:14.759Z,12.60
2023-02-02T23:30:42.634Z,12.70
2023-02-02T23:33:10.567Z,11.70
2023-02-02T23:35:38.436Z,14.20
2023-02-02T23:38:06.489Z,15.50
2023-02-02T23:40:34.375Z,15.90
2023-02-02T23:43:02.325Z,13.50
2023-02-02T23:45:30.276Z,16.90
2023-02-02T23:47:58.461Z,16.90
2023-02-02T23:50:27.370Z,16.70
2023-02-02T23:52:55.612Z,11.70
2023-02-02T23:55:23.567Z,16.50
2023-02-02T23:57:51.548Z,14.30
